Time,TemperatureF,DewpointF,PressureIn,WindDirection,WindDirectionDegrees,WindSpeedMPH,WindSpeedGustMPH,Humidity,HourlyPrecipIn,Conditions,Clouds,dailyrainin,SoftwareType,DateUTC
2013-02-28 00:14:00,47.9,36.0,29.74,SSW,208,1.0,4.0,63,0.00,,,0.00,weatherlink.com 1.10,2013-02-28 05:14:00,
2013-02-28 00:29:00,47.0,36.0,29.74,SW,234,1.0,2.0,65,0.00,,,0.00,weatherlink.com 1.10,2013-02-28 05:29:00,
2013-02-28 00:44:00,46.1,35.0,29.74,SW,234,0.0,2.0,66,0.00,,,0.00,weatherlink.com 1.10,2013-02-28 05:44:00,
2013-02-28 00:59:00,44.6,35.0,29.74,SW,234,0.0,1.0,70,0.00,,,0.00,weatherlink.com 1.10,2013-02-28 05:59:00,
2013-02-28 01:14:00,43.0,35.0,29.74,SW,234,0.0,0.0,74,0.00,,,0.00,weatherlink.com 1.10,2013-02-28 06:14:00,
2013-02-28 01:29:00,42.0,35.0,29.74,SW,234,0.0,0.0,75,0.00,,,0.00,weatherlink.com 1.10,2013-02-28 06:29:00,
2013-02-28 01:44:00,42.2,35.0,29.74,SW,234,0.0,2.0,75,0.00,,,0.00,weatherlink.com 1.10,2013-02-28 06:44:00,
2013-02-28 01:59:00,42.4,35.0,29.74,SW,234,0.0,1.0,75,0.00,,,0.00,weatherlink.com 1.10,2013-02-28 06:59:00,
2013-02-28 02:15:00,41.4,35.0,29.73,SW,234,0.0,1.0,78,0.00,,,0.00,weatherlink.com 1.10,2013-02-28 07:15:00,
2013-02-28 02:30:00,40.1,34.0,29.74,SW,234,0.0,0.0,80,0.00,,,0.00,weatherlink.com 1.10,2013-02-28 07:30:00,
2013-02-28 02:45:00,39.0,34.0,29.74,SW,234,0.0,0.0,82,0.00,,,0.00,weatherlink.com 1.10,2013-02-28 07:45:00,
2013-02-28 03:00:00,38.1,34.0,29.73,SW,234,0.0,1.0,84,0.00,,,0.00,weatherlink.com 1.10,2013-02-28 08:00:00,
2013-02-28 03:15:00,37.2,33.0,29.73,SW,234,0.0,0.0,86,0.00,,,0.00,weatherlink.com 1.10,2013-02-28 08:15:00,
2013-02-28 03:30:00,36.3,33.0,29.72,SW,234,0.0,1.0,87,0.00,,,0.00,weatherlink.com 1.10,2013-02-28 08:30:00,
2013-02-28 03:45:00,36.0,33.0,29.73,SW,234,0.0,0.0,89,0.00,,,0.00,weatherlink.com 1.10,2013-02-28 08:45:00,
2013-02-28 04:00:00,36.4,34.0,29.73,SW,234,1.0,1.0,89,0.00,,,0.00,weatherlink.com 1.10,2013-02-28 09:00:00,
2013-02-28 04:15:00,37.0,34.0,29.73,SSW,199,0.0,1.0,88,0.00,,,0.00,weatherlink.com 1.10,2013-02-28 09:15:00,
2013-02-28 04:45:00,39.0,35.0,29.73,WSW,252,0.0,1.0,85,0.00,,,0.00,weatherlink.com 1.10,2013-02-28 09:45:00,
2013-02-28 05:00:00,38.6,35.0,29.73,WSW,252,0.0,1.0,85,0.00,,,0.00,weatherlink.com 1.10,2013-02-28 10:00:00,
2013-02-28 05:15:00,38.0,34.0,29.74,WSW,252,0.0,1.0,86,0.00,,,0.00,weatherlink.com 1.10,2013-02-28 10:15:00,
2013-02-28 05:30:00,37.2,34.0,29.74,SSW,200,0.0,2.0,87,0.00,,,0.00,weatherlink.com 1.10,2013-02-28 10:30:00,
2013-02-28 05:45:00,36.6,33.0,29.75,SSW,200,0.0,1.0,88,0.00,,,0.00,weatherlink.com 1.10,2013-02-28 10:45:00,
2013-02-28 06:00:00,36.1,33.0,29.75,SSW,200,0.0,1.0,89,0.00,,,0.00,weatherlink.com 1.10,2013-02-28 11:00:00,
2013-02-28 06:15:00,37.0,34.0,29.76,SSW,201,0.0,1.0,89,0.00,,,0.00,weatherlink.com 1.10,2013-02-28 11:15:00,
2013-02-28 06:30:00,37.3,34.0,29.76,SSW,201,0.0,0.0,88,0.00,,,0.00,weatherlink.com 1.10,2013-02-28 11:30:00,
2013-02-28 06:45:00,36.7,33.0,29.76,SSW,201,0.0,0.0,87,0.00,,,0.00,weatherlink.com 1.10,2013-02-28 11:45:00,
2013-02-28 07:00:00,35.7,33.0,29.76,SSW,201,0.0,0.0,88,0.00,,,0.00,weatherlink.com 1.10,2013-02-28 12:00:00,
2013-02-28 07:15:00,34.6,32.0,29.76,SSW,201,0.0,0.0,90,0.00,,,0.00,weatherlink.com 1.10,2013-02-28 12:15:00,
2013-02-28 07:30:00,34.3,33.0,29.77,SSW,201,0.0,0.0,93,0.00,,,0.00,weatherlink.com 1.10,2013-02-28 12:30:00,
2013-02-28 07:45:00,34.6,33.0,29.77,SSW,201,0.0,0.0,94,0.00,,,0.00,weatherlink.com 1.10,2013-02-28 12:45:00,
2013-02-28 08:00:00,35.7,34.0,29.78,SSW,201,0.0,1.0,94,0.00,,,0.00,weatherlink.com 1.10,2013-02-28 13:00:00,
2013-02-28 08:15:00,38.0,35.0,29.78,SW,225,0.0,3.0,90,0.00,,,0.00,weatherlink.com 1.10,2013-02-28 13:15:00,
2013-02-28 08:30:00,40.3,36.0,29.78,WSW,240,0.0,3.0,85,0.00,,,0.00,weatherlink.com 1.10,2013-02-28 13:30:00,
2013-02-28 08:45:00,42.7,37.0,29.79,SE,134,3.0,5.0,79,0.00,,,0.00,weatherlink.com 1.10,2013-02-28 13:45:00,
2013-02-28 09:00:00,43.4,36.0,29.79,SE,137,1.0,7.0,75,0.00,,,0.00,weatherlink.com 1.10,2013-02-28 14:00:00,
2013-02-28 09:15:00,44.0,35.0,29.80,West,277,2.0,6.0,72,0.00,,,0.00,weatherlink.com 1.10,2013-02-28 14:15:00,
2013-02-28 09:31:00,44.8,35.0,29.79,NW,316,4.0,7.0,69,0.00,,,0.00,weatherlink.com 1.10,2013-02-28 14:31:00,
2013-02-28 09:46:00,45.2,33.0,29.79,West,271,4.0,9.0,62,0.00,,,0.00,weatherlink.com 1.10,2013-02-28 14:46:00,
2013-02-28 10:01:00,45.8,33.0,29.80,WSW,248,1.0,8.0,62,0.00,,,0.00,weatherlink.com 1.10,2013-02-28 15:01:00,
2013-02-28 10:16:00,46.0,33.0,29.80,SW,224,6.0,7.0,61,0.00,,,0.00,weatherlink.com 1.10,2013-02-28 15:16:00,
2013-02-28 10:31:00,46.0,32.0,29.80,WSW,256,2.0,10.0,58,0.00,,,0.00,weatherlink.com 1.10,2013-02-28 15:31:00,
2013-02-28 10:46:00,47.6,32.0,29.80,SW,215,4.0,10.0,56,0.00,,,0.00,weatherlink.com 1.10,2013-02-28 15:46:00,
2013-02-28 11:01:00,47.6,31.0,29.80,West,259,4.0,9.0,52,0.00,,,0.00,weatherlink.com 1.10,2013-02-28 16:01:00,
2013-02-28 11:16:00,47.2,31.0,29.80,WSW,240,1.0,8.0,54,0.00,,,0.00,weatherlink.com 1.10,2013-02-28 16:16:00,
2013-02-28 11:31:00,48.6,31.0,29.80,WNW,288,4.0,11.0,50,0.00,,,0.00,weatherlink.com 1.10,2013-02-28 16:31:00,
2013-02-28 11:46:00,47.8,30.0,29.80,SW,233,1.0,10.0,51,0.00,,,0.00,weatherlink.com 1.10,2013-02-28 16:46:00,
2013-02-28 12:01:00,48.2,30.0,29.80,SW,220,4.0,12.0,50,0.00,,,0.00,weatherlink.com 1.10,2013-02-28 17:01:00,
2013-02-28 12:16:00,47.9,31.0,29.79,WNW,283,1.0,7.0,52,0.00,,,0.00,weatherlink.com 1.10,2013-02-28 17:16:00,
2013-02-28 12:31:00,48.2,29.0,29.79,WNW,289,2.0,7.0,47,0.00,,,0.00,weatherlink.com 1.10,2013-02-28 17:31:00,
2013-02-28 12:46:00,48.7,29.0,29.79,WSW,240,3.0,9.0,47,0.00,,,0.00,weatherlink.com 1.10,2013-02-28 17:46:00,
2013-02-28 13:01:00,49.3,29.0,29.78,West,259,4.0,11.0,46,0.00,,,0.00,weatherlink.com 1.10,2013-02-28 18:01:00,
2013-02-28 13:16:00,48.8,28.0,29.78,West,261,4.0,9.0,45,0.00,,,0.00,weatherlink.com 1.10,2013-02-28 18:16:00,
2013-02-28 13:31:00,49.6,30.0,29.78,West,273,1.0,7.0,47,0.00,,,0.00,weatherlink.com 1.10,2013-02-28 18:31:00,
2013-02-28 13:46:00,48.8,30.0,29.77,WNW,300,2.0,8.0,48,0.00,,,0.00,weatherlink.com 1.10,2013-02-28 18:46:00,
2013-02-28 14:01:00,48.8,29.0,29.78,West,277,4.0,10.0,46,0.00,,,0.00,weatherlink.com 1.10,2013-02-28 19:01:00,
2013-02-28 14:16:00,48.7,30.0,29.78,SSW,213,2.0,9.0,48,0.00,,,0.00,weatherlink.com 1.10,2013-02-28 19:16:00,
2013-02-28 14:31:00,48.8,29.0,29.78,WNW,302,2.0,9.0,47,0.00,,,0.00,weatherlink.com 1.10,2013-02-28 19:31:00,
2013-02-28 14:46:00,48.9,29.0,29.78,WNW,296,2.0,10.0,46,0.00,,,0.00,weatherlink.com 1.10,2013-02-28 19:46:00,
2013-02-28 15:01:00,49.0,30.0,29.79,East,79,2.0,8.0,48,0.00,,,0.00,weatherlink.com 1.10,2013-02-28 20:01:00,
2013-02-28 15:16:00,49.2,30.0,29.78,SW,234,3.0,9.0,47,0.00,,,0.00,weatherlink.com 1.10,2013-02-28 20:16:00,
2013-02-28 15:31:00,49.2,30.0,29.78,SW,232,3.0,7.0,48,0.00,,,0.00,weatherlink.com 1.10,2013-02-28 20:31:00,
2013-02-28 15:46:00,49.1,30.0,29.78,WSW,242,3.0,8.0,48,0.00,,,0.00,weatherlink.com 1.10,2013-02-28 20:46:00,
2013-02-28 16:01:00,49.1,29.0,29.79,WNW,302,3.0,6.0,47,0.00,,,0.00,weatherlink.com 1.10,2013-02-28 21:01:00,
2013-02-28 16:16:00,49.6,29.0,29.79,WNW,302,2.0,6.0,46,0.00,,,0.00,weatherlink.com 1.10,2013-02-28 21:16:00,
2013-02-28 16:31:00,50.7,30.0,29.79,West,259,4.0,8.0,45,0.00,,,0.00,weatherlink.com 1.10,2013-02-28 21:31:00,
2013-02-28 16:46:00,49.7,29.0,29.80,NW,323,4.0,9.0,46,0.00,,,0.00,weatherlink.com 1.10,2013-02-28 21:46:00,
2013-02-28 17:01:00,48.7,30.0,29.80,NW,317,2.0,6.0,48,0.00,,,0.00,weatherlink.com 1.10,2013-02-28 22:01:00,
2013-02-28 17:16:00,48.8,30.0,29.81,WSW,248,4.0,7.0,48,0.00,,,0.00,weatherlink.com 1.10,2013-02-28 22:16:00,
2013-02-28 17:31:00,48.4,29.0,29.81,SSW,199,0.0,10.0,48,0.00,,,0.00,weatherlink.com 1.10,2013-02-28 22:31:00,
2013-02-28 17:46:00,48.1,29.0,29.82,WNW,293,2.0,7.0,48,0.00,,,0.00,weatherlink.com 1.10,2013-02-28 22:46:00,
2013-02-28 18:01:00,47.6,30.0,29.83,WNW,283,2.0,8.0,51,0.00,,,0.00,weatherlink.com 1.10,2013-02-28 23:01:00,
2013-02-28 18:16:00,47.0,30.0,29.83,SW,229,1.0,6.0,52,0.00,,,0.00,weatherlink.com 1.10,2013-02-28 23:16:00,
2013-02-28 18:31:00,46.2,30.0,29.83,WSW,246,1.0,4.0,53,0.00,,,0.00,weatherlink.com 1.10,2013-02-28 23:31:00,
2013-02-28 18:46:00,45.4,30.0,29.85,WSW,238,4.0,6.0,55,0.00,,,0.00,weatherlink.com 1.10,2013-02-28 23:46:00,
2013-02-28 19:01:00,44.5,29.0,29.85,NW,313,1.0,5.0,56,0.00,,,0.00,weatherlink.com 1.10,2013-03-01 00:01:00,
2013-02-28 19:16:00,43.6,29.0,29.86,NW,313,3.0,5.0,57,0.00,,,0.00,weatherlink.com 1.10,2013-03-01 00:16:00,
2013-02-28 19:31:00,43.2,29.0,29.86,WNW,298,1.0,6.0,57,0.00,,,0.00,weatherlink.com 1.10,2013-03-01 00:31:00,
2013-02-28 19:46:00,42.4,29.0,29.86,SW,230,1.0,5.0,59,0.00,,,0.00,weatherlink.com 1.10,2013-03-01 00:46:00,
2013-02-28 20:01:00,41.8,28.0,29.86,WSW,242,1.0,5.0,59,0.00,,,0.00,weatherlink.com 1.10,2013-03-01 01:01:00,
2013-02-28 20:16:00,41.5,28.0,29.86,NW,314,0.0,5.0,60,0.00,,,0.00,weatherlink.com 1.10,2013-03-01 01:16:00,
2013-02-28 20:31:00,41.2,29.0,29.86,WNW,302,3.0,5.0,61,0.00,,,0.00,weatherlink.com 1.10,2013-03-01 01:31:00,
2013-02-28 20:46:00,40.7,28.0,29.86,WSW,257,0.0,4.0,62,0.00,,,0.00,weatherlink.com 1.10,2013-03-01 01:46:00,
2013-02-28 21:01:00,40.2,29.0,29.87,WSW,255,0.0,5.0,64,0.00,,,0.00,weatherlink.com 1.10,2013-03-01 02:01:00,
2013-02-28 21:16:00,39.5,29.0,29.87,West,267,0.0,3.0,65,0.00,,,0.00,weatherlink.com 1.10,2013-03-01 02:16:00,
2013-02-28 21:31:00,38.9,28.0,29.87,West,267,0.0,2.0,66,0.00,,,0.00,weatherlink.com 1.10,2013-03-01 02:31:00,
2013-02-28 21:46:00,38.6,28.0,29.88,WNW,292,1.0,3.0,67,0.00,,,0.00,weatherlink.com 1.10,2013-03-01 02:46:00,
2013-02-28 22:01:00,38.4,29.0,29.88,WSW,255,0.0,4.0,68,0.00,,,0.00,weatherlink.com 1.10,2013-03-01 03:01:00,
2013-02-28 22:16:00,37.9,28.0,29.88,West,267,0.0,4.0,68,0.00,,,0.00,weatherlink.com 1.10,2013-03-01 03:16:00,
2013-02-28 22:32:00,37.6,28.0,29.89,WNW,290,0.0,3.0,69,0.00,,,0.00,weatherlink.com 1.10,2013-03-01 03:32:00,
2013-02-28 22:46:00,37.3,28.0,29.89,WSW,252,1.0,4.0,70,0.00,,,0.00,weatherlink.com 1.10,2013-03-01 03:46:00,
2013-02-28 23:01:00,37.1,28.0,29.88,WSW,246,0.0,3.0,70,0.00,,,0.00,weatherlink.com 1.10,2013-03-01 04:01:00,
2013-02-28 23:17:00,36.8,28.0,29.89,WSW,248,0.0,4.0,70,0.00,,,0.00,weatherlink.com 1.10,2013-03-01 04:17:00,
2013-02-28 23:32:00,36.2,28.0,29.88,WSW,248,0.0,2.0,72,0.00,,,0.00,weatherlink.com 1.10,2013-03-01 04:32:00,
2013-02-28 23:47:00,35.1,28.0,29.88,WSW,248,0.0,1.0,74,0.00,,,0.00,weatherlink.com 1.10,2013-03-01 04:47:00,